RKSI/ICN METAR and TAF weather

Enter ICAO airport designator
Station Type Date Time Source
RKSI METAR 2018/12/17 16:30 UTC NOAA

RKSI 171630Z 15001KT CAVOK M02/M06 Q1021 NOSIG


Station Type Date Time Source
RKSI Decoded METAR 2018/12/17 16:30 UTC NOAA

Incheon International Airport, Korea, South (RKSI) 37-28N 126-27E
Dec 17, 2018 - 11:30 AM EST / 2018.12.17 1630 UTC
Wind: from the SSE (150 degrees) at 1 MPH (1 KT):0
Visibility: greater than 7 mile(s):0
Temperature: 28 F (-2 C)
Dew Point: 21 F (-6 C)
Relative Humidity: 74%
Pressure (altimeter): 30.15 in. Hg (1021 hPa)
ob: RKSI 171630Z 15001KT CAVOK M02/M06 Q1021 NOSIG
cycle: 16

Station Type Date Time Source
RKSI TAF 2018/12/17 12:09 UTC NOAA

TAF RKSI 171100Z 1712/1818 33007KT 7000 FEW025 TNM01/1721Z TX08/1805Z
TEMPO 1720/1721 24006KT BKN030
BECMG 1802/1803 24007KT
BECMG 1816/1817 32010KT


Example: see airport list